createdAt,value
2022-10-16T03:33:32.916Z,85.44
2022-10-16T03:36:32.655Z,85.07
2022-10-16T03:44:27.073Z,85.07
2022-10-16T03:47:07.210Z,85.13
2022-10-16T03:50:08.892Z,85.12
2022-10-16T03:52:42.233Z,85.15
2022-10-16T04:02:05.751Z,85.43
2022-10-16T04:04:39.322Z,85.56
2022-10-16T04:07:08.601Z,85.58
2022-10-16T04:09:48.581Z,85.24
2022-10-16T04:13:08.232Z,85.20
2022-10-16T04:15:48.417Z,85.29
2022-10-16T04:18:17.586Z,85.07
2022-10-16T04:24:26.890Z,85.03
2022-10-16T04:26:53.591Z,85.14
2022-10-16T04:29:20.385Z,84.78
2022-10-16T04:31:47.764Z,84.88
2022-10-16T04:41:24.480Z,85.01
2022-10-16T04:43:51.280Z,85.37
2022-10-16T04:46:18.009Z,85.35
2022-10-16T04:48:44.662Z,85.11
2022-10-16T04:51:12.101Z,85.29
2022-10-16T04:53:38.844Z,85.11
2022-10-16T04:56:08.004Z,85.09
2022-10-16T04:58:34.717Z,85.60
2022-10-16T05:01:01.349Z,85.32
2022-10-16T05:03:28.170Z,85.45
2022-10-16T05:05:54.904Z,85.60
2022-10-16T05:08:21.773Z,85.55
2022-10-16T05:10:48.437Z,85.40
2022-10-16T05:13:15.303Z,85.73
2022-10-16T05:15:48.244Z,85.41
2022-10-16T05:18:15.199Z,85.47
2022-10-16T05:20:42.745Z,85.65
2022-10-16T05:23:11.291Z,85.88
2022-10-16T05:25:38.299Z,85.58
2022-10-16T05:30:31.849Z,85.85
2022-10-16T05:32:58.560Z,85.78
2022-10-16T05:35:25.286Z,86.00
2022-10-16T05:37:51.956Z,85.84
2022-10-16T05:40:18.607Z,86.08
2022-10-16T05:42:45.262Z,86.10
2022-10-16T05:45:13.175Z,85.80
2022-10-16T05:47:40.476Z,85.79
2022-10-16T05:50:08.054Z,85.95
2022-10-16T05:52:34.701Z,85.98
2022-10-16T05:55:01.522Z,86.13
2022-10-16T05:57:28.333Z,86.11
2022-10-16T05:59:55.273Z,85.71
2022-10-16T06:02:22.121Z,86.02
2022-10-16T06:04:48.774Z,85.86
2022-10-16T06:07:15.796Z,85.75
2022-10-16T06:09:42.559Z,86.12
2022-10-16T06:12:09.197Z,86.07
2022-10-16T06:14:35.925Z,85.71
2022-10-16T06:17:02.630Z,85.81
2022-10-16T06:19:29.272Z,86.03
2022-10-16T06:21:55.924Z,85.90
2022-10-16T06:24:22.638Z,85.58
2022-10-16T06:26:49.247Z,85.99
2022-10-16T06:29:15.976Z,85.72
2022-10-16T06:31:42.927Z,85.43
2022-10-16T06:34:11.816Z,85.66
2022-10-16T06:36:39.503Z,85.59
2022-10-16T06:39:08.338Z,85.77
2022-10-16T06:41:35.423Z,85.30
2022-10-16T06:44:15.362Z,85.49
2022-10-16T06:46:42.311Z,85.65
2022-10-16T06:49:08.961Z,85.18
2022-10-16T06:51:40.451Z,85.58
2022-10-16T06:54:09.172Z,85.56
2022-10-16T06:56:35.985Z,85.24
2022-10-16T06:59:03.540Z,85.42
2022-10-16T07:01:31.071Z,85.32
2022-10-16T07:03:58.433Z,85.12
2022-10-16T07:06:26.635Z,85.12
2022-10-16T07:08:53.402Z,84.73
2022-10-16T07:11:22.512Z,84.59
2022-10-16T07:13:54.433Z,84.60
2022-10-16T07:16:24.312Z,84.38
2022-10-16T07:18:55.258Z,84.59
2022-10-16T07:21:23.906Z,84.56
2022-10-16T07:23:54.965Z,84.55
2022-10-16T07:26:22.580Z,84.42
2022-10-16T07:28:49.430Z,84.77
2022-10-16T07:31:17.941Z,84.52
2022-10-16T07:33:46.342Z,84.35
2022-10-16T07:36:16.214Z,84.19
2022-10-16T07:38:43.865Z,84.36
2022-10-16T07:41:13.441Z,84.41
2022-10-16T07:43:40.360Z,83.93
2022-10-16T07:46:07.540Z,84.16
2022-10-16T07:48:35.615Z,83.93
2022-10-16T07:51:05.107Z,83.83
2022-10-16T07:53:31.869Z,83.97
2022-10-16T07:56:00.036Z,83.76
2022-10-16T07:58:28.282Z,83.81
2022-10-16T08:00:55.613Z,84.06
2022-10-16T08:03:22.330Z,83.66
2022-10-16T08:05:49.289Z,83.86
2022-10-16T08:08:20.147Z,83.70
2022-10-16T08:10:47.224Z,83.48
2022-10-16T08:13:16.354Z,83.43
2022-10-16T08:15:44.535Z,83.67
2022-10-16T08:18:12.691Z,83.31
2022-10-16T08:20:40.529Z,83.27
